Time;durP1;ratioP1;P1;durP2;ratioP2;P2;SDS_P1;SDS_P2;PMS_P1;PMS_P2;Temp;Humidity;BMP_temperature;BMP_pressure;BME280_temperature;BME280_humidity;BME280_pressure;Samples;Min_cycle;Max_cycle;Signal;HPM_P1;HPM_P2
2022/04/07 00:01:57;;;;;;;1.25;1.15;;;10.80;99.90;;;;;;4980607;28;20074;-79
2022/04/07 00:04:23;;;;;;;1.60;1.00;;;10.80;99.90;;;;;;4968814;28;20088;-82
2022/04/07 00:06:50;;;;;;;1.00;1.00;;;10.70;99.90;;;;;;4981516;28;20074;-79
2022/04/07 00:09:15;;;;;;;2.10;1.10;;;10.60;99.90;;;;;;4980380;28;20053;-80
2022/04/07 00:11:41;;;;;;;1.42;0.93;;;10.60;99.90;;;;;;4987771;28;20083;-80
2022/04/07 00:14:13;;;;;;;2.47;1.35;;;10.60;99.90;;;;;;4978533;28;20031;-78
2022/04/07 00:16:39;;;;;;;1.73;1.50;;;10.50;99.90;;;;;;4977782;28;20030;-79
2022/04/07 00:19:05;;;;;;;1.30;1.20;;;10.50;99.90;;;;;;4972704;28;20541;-79
2022/04/07 00:21:38;;;;;;;1.60;1.25;;;10.50;99.90;;;;;;4986682;28;20058;-80
2022/04/07 00:24:05;;;;;;;2.45;1.63;;;10.40;99.90;;;;;;4988266;28;20046;-78
2022/04/07 00:26:32;;;;;;;2.20;1.30;;;10.40;99.90;;;;;;4985614;28;20038;-78
2022/04/07 00:28:58;;;;;;;1.45;1.35;;;10.30;99.90;;;;;;4986179;28;20055;-80
2022/04/07 00:31:24;;;;;;;1.80;1.08;;;10.30;99.90;;;;;;4975112;28;20511;-78
2022/04/07 00:33:50;;;;;;;1.17;1.08;;;10.30;99.90;;;;;;4986811;28;20019;-79
2022/04/07 00:36:15;;;;;;;1.00;0.90;;;10.20;99.90;;;;;;4982459;28;20698;-76
2022/04/07 00:38:41;;;;;;;1.17;1.08;;;10.30;99.90;;;;;;4983903;28;20034;-77
2022/04/07 00:41:07;;;;;;;1.17;1.08;;;10.30;99.90;;;;;;4983084;28;20031;-79
2022/04/07 00:43:34;;;;;;;0.90;0.90;;;10.30;99.90;;;;;;4976535;28;20110;-78
2022/04/07 00:46:01;;;;;;;2.03;0.80;;;10.40;99.90;;;;;;4994518;28;20089;-81
2022/04/07 00:48:27;;;;;;;1.08;0.80;;;10.40;99.90;;;;;;4986266;28;20027;-80
2022/04/07 00:50:54;;;;;;;0.90;0.70;;;10.50;99.90;;;;;;4992319;28;20051;-80
2022/04/07 00:53:20;;;;;;;1.00;0.90;;;10.50;99.90;;;;;;4981140;28;20023;-81
2022/04/07 00:55:53;;;;;;;2.17;0.88;;;10.50;99.90;;;;;;4974881;28;20481;-80
2022/04/07 00:58:22;;;;;;;0.88;0.70;;;10.60;99.90;;;;;;4970705;28;20489;-81
2022/04/07 01:00:47;;;;;;;0.95;0.80;;;10.60;99.90;;;;;;4965399;28;20035;-80
2022/04/07 01:03:13;;;;;;;1.40;1.10;;;10.60;99.90;;;;;;4977790;28;20576;-78
2022/04/07 01:05:38;;;;;;;0.93;0.80;;;10.60;99.90;;;;;;4976740;28;20018;-79
2022/04/07 01:08:07;;;;;;;2.15;0.73;;;10.60;99.90;;;;;;4980755;28;20037;-78
2022/04/07 01:10:33;;;;;;;0.77;0.77;;;10.60;99.90;;;;;;4981668;28;20030;-78
2022/04/07 01:12:58;;;;;;;0.73;0.73;;;10.60;99.90;;;;;;4966936;28;20051;-78
2022/04/07 01:15:24;;;;;;;0.85;0.75;;;10.60;99.90;;;;;;4982103;28;20027;-78
2022/04/07 01:17:50;;;;;;;0.90;0.90;;;10.60;99.90;;;;;;4986702;28;20027;-78
2022/04/07 01:20:16;;;;;;;0.70;0.60;;;10.60;99.90;;;;;;4981880;28;20030;-78
2022/04/07 01:22:44;;;;;;;0.70;0.70;;;10.60;99.90;;;;;;4983687;28;20022;-78
2022/04/07 01:25:10;;;;;;;0.70;0.60;;;10.50;99.90;;;;;;4983557;28;20089;-77
2022/04/07 01:27:36;;;;;;;1.23;0.70;;;10.50;99.90;;;;;;4982774;28;20081;-77
2022/04/07 01:30:08;;;;;;;1.00;0.77;;;10.50;99.90;;;;;;4978068;28;20031;-77
2022/04/07 01:32:45;;;;;;;0.98;0.68;;;10.50;99.90;;;;;;4982605;28;20022;-78
2022/04/07 01:35:13;;;;;;;0.50;0.40;;;10.50;99.90;;;;;;4980986;28;20058;-78
2022/04/07 01:37:41;;;;;;;1.23;0.47;;;10.60;99.90;;;;;;4986048;28;20126;-78
2022/04/07 01:40:09;;;;;;;0.80;0.75;;;10.50;99.90;;;;;;4991213;28;20042;-78
2022/04/07 01:42:37;;;;;;;1.35;0.68;;;10.50;99.90;;;;;;4978975;28;20396;-77
2022/04/07 01:45:04;;;;;;;1.20;0.50;;;10.40;99.90;;;;;;4971656;28;20041;-77
2022/04/07 01:47:33;;;;;;;1.98;0.68;;;10.30;99.90;;;;;;4979413;28;20018;-78
2022/04/07 01:50:08;;;;;;;1.55;0.70;;;10.20;99.90;;;;;;4985803;28;20026;-78
2022/04/07 01:52:37;;;;;;;0.60;0.60;;;10.20;99.90;;;;;;4982607;28;20400;-78
2022/04/07 01:55:04;;;;;;;1.73;0.70;;;10.10;99.90;;;;;;4979970;28;20449;-78
2022/04/07 01:57:31;;;;;;;0.80;0.60;;;10.20;99.90;;;;;;4980868;28;20027;-77
2022/04/07 01:59:58;;;;;;;2.05;0.70;;;10.20;99.90;;;;;;4987420;28;20066;-77
2022/04/07 02:02:23;;;;;;;0.93;0.70;;;10.10;99.90;;;;;;4969004;28;20038;-77
2022/04/07 02:05:00;;;;;;;1.00;0.90;;;10.10;99.90;;;;;;4979095;28;20109;-78
2022/04/07 02:07:32;;;;;;;0.85;0.85;;;10.10;99.90;;;;;;4979101;28;20444;-77
2022/04/07 02:09:59;;;;;;;1.08;0.75;;;10.20;99.90;;;;;;4980323;28;20042;-77
2022/04/07 02:12:27;;;;;;;0.80;0.80;;;10.20;99.90;;;;;;4986151;28;20437;-78
2022/04/07 02:14:53;;;;;;;1.55;0.60;;;10.20;99.90;;;;;;4973753;28;20035;-78
2022/04/07 02:17:22;;;;;;;0.95;0.85;;;10.30;99.90;;;;;;4983585;28;20476;-78
2022/04/07 02:19:50;;;;;;;0.70;0.70;;;10.30;99.90;;;;;;4972850;28;20063;-76
2022/04/07 02:22:15;;;;;;;0.70;0.70;;;10.30;99.90;;;;;;4980109;28;20030;-77
2022/04/07 02:24:41;;;;;;;0.95;0.90;;;10.30;99.90;;;;;;4980383;28;20035;-78
2022/04/07 02:27:10;;;;;;;2.30;1.20;;;10.40;99.90;;;;;;4978604;28;20023;-79
2022/04/07 02:29:36;;;;;;;2.33;1.25;;;10.40;99.90;;;;;;4986841;28;20026;-77
2022/04/07 02:32:02;;;;;;;1.10;0.80;;;10.50;99.90;;;;;;4978666;28;20031;-78
2022/04/07 02:34:28;;;;;;;0.80;0.80;;;10.50;99.90;;;;;;4993172;28;20477;-77
2022/04/07 02:36:54;;;;;;;0.88;0.88;;;10.50;99.90;;;;;;4983581;28;20042;-77
2022/04/07 02:39:19;;;;;;;1.33;0.70;;;10.50;99.90;;;;;;4965102;28;20034;-76
2022/04/07 02:41:45;;;;;;;2.55;1.83;;;10.50;99.90;;;;;;4985320;28;20054;-77
2022/04/07 02:44:10;;;;;;;0.80;0.68;;;10.50;99.90;;;;;;4981664;28;20110;-77
2022/04/07 02:46:37;;;;;;;2.95;1.00;;;10.50;99.90;;;;;;4980177;28;20054;-77
2022/04/07 02:49:04;;;;;;;0.95;0.70;;;10.50;99.90;;;;;;4986109;28;20489;-77
2022/04/07 02:51:31;;;;;;;1.08;0.60;;;10.40;99.90;;;;;;4970470;28;20030;-78
2022/04/07 02:53:58;;;;;;;0.50;0.50;;;10.40;99.90;;;;;;4983657;28;20033;-78
2022/04/07 02:56:25;;;;;;;1.00;0.90;;;10.40;99.90;;;;;;4987096;28;20023;-76
2022/04/07 02:58:51;;;;;;;2.20;1.08;;;10.50;99.90;;;;;;4977568;28;20040;-77
2022/04/07 03:01:17;;;;;;;4.05;0.70;;;10.50;99.90;;;;;;4977234;28;20034;-76
2022/04/07 03:03:43;;;;;;;0.80;0.80;;;10.40;99.90;;;;;;4984476;28;20027;-78
2022/04/07 03:06:09;;;;;;;1.40;0.63;;;10.40;99.90;;;;;;4981085;28;22033;-76
2022/04/07 03:08:34;;;;;;;2.15;0.57;;;10.30;99.90;;;;;;4981406;28;20030;-77
2022/04/07 03:11:00;;;;;;;0.82;0.70;;;10.40;99.90;;;;;;4960841;28;20038;-79
2022/04/07 03:13:26;;;;;;;0.63;0.50;;;10.30;99.90;;;;;;4982034;28;20031;-79
2022/04/07 03:15:52;;;;;;;0.60;0.60;;;10.30;99.90;;;;;;4976124;28;20077;-77
2022/04/07 03:18:17;;;;;;;0.80;0.80;;;10.30;99.90;;;;;;4970808;28;20028;-78
2022/04/07 03:20:43;;;;;;;0.57;0.50;;;10.30;99.90;;;;;;4959879;28;20031;-77
2022/04/07 03:23:08;;;;;;;1.75;0.40;;;10.30;99.90;;;;;;4979257;28;20064;-78
2022/04/07 03:25:34;;;;;;;1.30;0.82;;;10.20;99.90;;;;;;4964454;28;20066;-78
2022/04/07 03:28:00;;;;;;;1.45;0.75;;;10.20;99.90;;;;;;4981037;28;20474;-77
2022/04/07 03:30:25;;;;;;;0.82;0.65;;;10.30;99.90;;;;;;4955422;28;20031;-78
2022/04/07 03:32:51;;;;;;;0.90;0.70;;;10.30;99.90;;;;;;4974852;28;20026;-78
2022/04/07 03:35:17;;;;;;;0.98;0.50;;;10.30;99.90;;;;;;4957490;28;20412;-76
2022/04/07 03:37:42;;;;;;;0.70;0.60;;;10.30;99.90;;;;;;4978617;28;20033;-77
2022/04/07 03:40:08;;;;;;;1.15;0.45;;;10.30;99.90;;;;;;4995904;28;20119;-77
2022/04/07 03:42:35;;;;;;;0.60;0.60;;;10.30;99.90;;;;;;5006641;28;20030;-78
2022/04/07 03:45:01;;;;;;;0.95;0.88;;;10.30;99.90;;;;;;4989822;28;20061;-78
2022/04/07 03:47:26;;;;;;;1.02;0.40;;;10.40;99.90;;;;;;5001074;28;20022;-77
2022/04/07 03:49:52;;;;;;;2.15;0.65;;;10.40;99.90;;;;;;4981838;28;20046;-78
2022/04/07 03:52:17;;;;;;;0.73;0.60;;;10.40;99.90;;;;;;4996529;28;20054;-78
2022/04/07 03:54:43;;;;;;;1.58;0.57;;;10.40;99.90;;;;;;4974885;28;20019;-79
2022/04/07 03:57:09;;;;;;;2.88;0.70;;;10.30;99.90;;;;;;4958794;28;20041;-76
2022/04/07 03:59:39;;;;;;;0.80;0.60;;;10.30;99.90;;;;;;4974476;28;20022;-77
2022/04/07 04:02:06;;;;;;;2.15;0.50;;;10.30;99.90;;;;;;4961009;28;20235;-77
2022/04/07 04:04:32;;;;;;;1.05;0.50;;;10.30;99.90;;;;;;4977029;28;20038;-76
2022/04/07 04:06:58;;;;;;;0.43;0.43;;;10.30;99.90;;;;;;4974015;28;20421;-77
2022/04/07 04:09:23;;;;;;;1.73;0.70;;;10.30;99.90;;;;;;4977818;28;20109;-78
2022/04/07 04:11:49;;;;;;;0.55;0.52;;;10.40;99.90;;;;;;4965540;28;20049;-76
2022/04/07 04:14:15;;;;;;;1.85;0.70;;;10.40;99.90;;;;;;4976870;28;20031;-77
2022/04/07 04:16:41;;;;;;;0.40;0.40;;;10.30;99.90;;;;;;4966095;28;20489;-77
2022/04/07 04:19:07;;;;;;;2.05;0.70;;;10.40;99.90;;;;;;4978801;28;20023;-78
2022/04/07 04:21:33;;;;;;;2.10;0.80;;;10.30;99.90;;;;;;4971940;28;20046;-78
2022/04/07 04:24:02;;;;;;;0.70;0.70;;;10.30;99.90;;;;;;4964769;28;20570;-78
2022/04/07 04:26:28;;;;;;;0.60;0.60;;;10.30;99.90;;;;;;4976622;28;20563;-77
2022/04/07 04:28:53;;;;;;;0.55;0.55;;;10.40;99.90;;;;;;4976005;28;20042;-77
2022/04/07 04:31:20;;;;;;;5.15;0.70;;;10.30;99.90;;;;;;4977046;28;20058;-78
2022/04/07 04:33:46;;;;;;;0.85;0.60;;;10.30;99.90;;;;;;4973312;28;20109;-77
2022/04/07 04:36:11;;;;;;;1.95;0.80;;;10.30;99.90;;;;;;4975480;28;20062;-76
2022/04/07 04:38:37;;;;;;;1.23;0.50;;;10.30;99.90;;;;;;4971803;28;20090;-76
2022/04/07 04:41:02;;;;;;;1.02;0.80;;;10.30;99.90;;;;;;4973426;28;20041;-78
2022/04/07 04:43:28;;;;;;;0.80;0.60;;;10.20;99.90;;;;;;4975013;28;20082;-76
2022/04/07 04:45:53;;;;;;;0.77;0.60;;;10.30;99.90;;;;;;4973330;28;20114;-78
2022/04/07 04:48:19;;;;;;;0.80;0.50;;;10.30;99.90;;;;;;4984637;28;20037;-78
2022/04/07 04:50:45;;;;;;;2.05;1.00;;;10.40;99.90;;;;;;4977480;28;20074;-76
2022/04/07 04:53:10;;;;;;;2.97;0.68;;;10.40;99.90;;;;;;4959985;28;20053;-77
2022/04/07 04:55:36;;;;;;;0.57;0.57;;;10.40;99.90;;;;;;4977102;28;20022;-76
2022/04/07 04:58:02;;;;;;;0.68;0.50;;;10.40;99.90;;;;;;4975540;28;20481;-77
2022/04/07 05:00:27;;;;;;;0.90;0.57;;;10.40;99.90;;;;;;4978603;28;20062;-78
2022/04/07 05:02:53;;;;;;;1.50;0.43;;;10.40;99.90;;;;;;4976886;28;20038;-78
2022/04/07 05:05:18;;;;;;;1.00;0.70;;;10.50;99.90;;;;;;4976486;28;20396;-78
2022/04/07 05:07:44;;;;;;;0.60;0.50;;;10.60;99.90;;;;;;4973891;28;20070;-77
2022/04/07 05:10:10;;;;;;;0.70;0.45;;;10.60;99.90;;;;;;4983025;28;20031;-77
2022/04/07 05:12:35;;;;;;;0.68;0.68;;;10.60;99.90;;;;;;4979253;28;20074;-78
2022/04/07 05:15:01;;;;;;;2.58;1.98;;;10.60;99.90;;;;;;4980932;28;20441;-78
2022/04/07 05:17:27;;;;;;;2.17;1.80;;;10.50;99.90;;;;;;4978440;28;20031;-77
2022/04/07 05:19:52;;;;;;;2.25;1.80;;;10.50;99.90;;;;;;4980295;28;20039;-77
2022/04/07 05:22:18;;;;;;;3.10;2.83;;;10.50;99.90;;;;;;4976414;28;20019;-76
2022/04/07 05:24:44;;;;;;;1.95;1.50;;;10.50;99.90;;;;;;4974902;28;20031;-77
2022/04/07 05:27:09;;;;;;;0.73;0.50;;;10.50;99.90;;;;;;4997499;28;20042;-78
2022/04/07 05:29:35;;;;;;;0.80;0.50;;;10.50;99.90;;;;;;5010130;28;20037;-80
2022/04/07 05:32:01;;;;;;;0.50;0.47;;;10.60;99.90;;;;;;5002304;28;20107;-78
2022/04/07 05:34:26;;;;;;;0.55;0.40;;;10.60;99.90;;;;;;5008753;28;20027;-78
2022/04/07 05:36:52;;;;;;;0.45;0.45;;;10.60;99.90;;;;;;4988998;28;20023;-77
2022/04/07 05:39:17;;;;;;;1.00;0.60;;;10.70;99.90;;;;;;4991113;28;20030;-81
2022/04/07 05:41:43;;;;;;;0.50;0.40;;;11.00;99.90;;;;;;4990863;28;20030;-78
2022/04/07 05:44:09;;;;;;;0.30;0.30;;;11.10;99.90;;;;;;4993639;28;20094;-76
2022/04/07 05:46:34;;;;;;;2.47;0.38;;;11.10;99.90;;;;;;4965456;28;20489;-78
2022/04/07 05:49:00;;;;;;;1.48;0.70;;;11.10;99.90;;;;;;4984294;28;20034;-78
2022/04/07 05:51:25;;;;;;;1.02;0.68;;;11.00;99.90;;;;;;4964930;28;20049;-78
2022/04/07 05:53:51;;;;;;;1.13;0.57;;;10.80;99.90;;;;;;4980609;28;20385;-79
2022/04/07 05:56:16;;;;;;;0.80;0.50;;;10.90;99.90;;;;;;4990967;28;20955;-78
2022/04/07 05:58:42;;;;;;;1.73;0.75;;;10.90;99.90;;;;;;4984084;28;20057;-78
2022/04/07 06:01:08;;;;;;;1.08;0.50;;;11.10;99.90;;;;;;4982063;28;20145;-78
2022/04/07 06:03:36;;;;;;;0.50;0.50;;;11.60;99.90;;;;;;4978030;28;20159;-78
2022/04/07 06:06:01;;;;;;;1.15;0.70;;;12.10;99.90;;;;;;4978369;28;20134;-77
2022/04/07 06:08:27;;;;;;;0.43;0.30;;;12.30;99.90;;;;;;4978727;28;20504;-77
2022/04/07 06:10:52;;;;;;;0.63;0.52;;;12.30;99.90;;;;;;4979542;28;20031;-78
2022/04/07 06:13:18;;;;;;;0.63;0.30;;;12.20;99.90;;;;;;4975426;28;20049;-78
2022/04/07 06:15:43;;;;;;;0.30;0.30;;;12.10;99.90;;;;;;4985481;28;20038;-77
2022/04/07 06:18:09;;;;;;;2.40;0.55;;;12.10;99.90;;;;;;4961442;28;20054;-77
2022/04/07 06:20:34;;;;;;;2.08;0.50;;;12.10;99.90;;;;;;4978382;28;20393;-77
2022/04/07 06:23:00;;;;;;;0.90;0.50;;;12.10;99.90;;;;;;4991778;28;20070;-77
2022/04/07 06:25:29;;;;;;;0.52;0.40;;;12.00;99.90;;;;;;4981367;28;20128;-77
2022/04/07 06:27:54;;;;;;;0.45;0.40;;;12.10;99.90;;;;;;4976258;28;20053;-78
2022/04/07 06:30:20;;;;;;;1.33;0.52;;;12.00;99.90;;;;;;4978868;28;20020;-77
2022/04/07 06:32:47;;;;;;;0.43;0.40;;;12.10;99.90;;;;;;4963538;28;20114;-78
2022/04/07 06:35:15;;;;;;;0.40;0.38;;;11.90;99.90;;;;;;4977568;28;20481;-77
2022/04/07 06:37:54;;;;;;;1.63;1.52;;;11.90;99.90;;;;;;4978952;28;20030;-77
2022/04/07 06:40:21;;;;;;;1.55;0.50;;;11.80;99.90;;;;;;4980995;28;20401;-76
2022/04/07 06:42:48;;;;;;;1.00;0.30;;;11.90;99.90;;;;;;4989688;28;20651;-77
2022/04/07 06:45:15;;;;;;;0.32;0.30;;;11.90;99.90;;;;;;4974057;28;20157;-79
2022/04/07 06:47:41;;;;;;;0.40;0.30;;;11.90;99.90;;;;;;4959048;28;20122;-77
2022/04/07 06:50:11;;;;;;;0.60;0.50;;;11.90;99.90;;;;;;4961542;28;20121;-77
2022/04/07 06:52:37;;;;;;;0.73;0.40;;;11.90;99.90;;;;;;4973357;28;20031;-79
2022/04/07 06:55:03;;;;;;;2.38;0.52;;;11.90;99.90;;;;;;4979142;28;20031;-77
2022/04/07 06:57:29;;;;;;;0.30;0.30;;;12.00;99.90;;;;;;4977085;28;20054;-78
2022/04/07 06:59:54;;;;;;;0.30;0.30;;;12.00;99.90;;;;;;4975522;28;20073;-78
2022/04/07 07:02:20;;;;;;;0.20;0.20;;;12.00;99.90;;;;;;4974628;28;20039;-78
2022/04/07 07:04:46;;;;;;;0.32;0.32;;;12.00;99.90;;;;;;4976423;28;20058;-77
2022/04/07 07:07:13;;;;;;;0.47;0.30;;;12.10;99.90;;;;;;4975268;28;21874;-75
2022/04/07 07:09:39;;;;;;;0.55;0.40;;;12.00;99.90;;;;;;4978113;28;20026;-75
2022/04/07 07:12:04;;;;;;;0.93;0.30;;;12.10;99.90;;;;;;4975931;28;20033;-79
2022/04/07 07:14:30;;;;;;;0.40;0.25;;;12.10;99.90;;;;;;4970785;28;20465;-78
2022/04/07 07:16:56;;;;;;;0.60;0.35;;;12.30;99.90;;;;;;4970430;28;20037;-80
2022/04/07 07:19:26;;;;;;;0.50;0.38;;;12.50;99.90;;;;;;4980540;28;20042;-80
2022/04/07 07:21:53;;;;;;;1.02;0.40;;;12.40;99.90;;;;;;4983006;28;20026;-80
2022/04/07 07:24:18;;;;;;;0.38;0.38;;;12.40;99.90;;;;;;4974849;28;20438;-81
2022/04/07 07:26:45;;;;;;;0.63;0.40;;;12.40;99.90;;;;;;4979163;28;20086;-79
2022/04/07 07:29:10;;;;;;;1.00;0.32;;;12.50;99.90;;;;;;4964722;28;20098;-80
2022/04/07 07:31:36;;;;;;;0.98;0.50;;;12.50;99.90;;;;;;4977092;28;20070;-79
2022/04/07 07:34:03;;;;;;;0.77;0.30;;;12.60;99.90;;;;;;4981569;28;20493;-80
2022/04/07 07:36:31;;;;;;;0.20;0.20;;;12.80;99.90;;;;;;4976872;28;20026;-79
2022/04/07 07:38:57;;;;;;;2.08;0.55;;;12.80;99.90;;;;;;4980969;28;20034;-79
2022/04/07 07:41:23;;;;;;;0.45;0.30;;;12.80;99.90;;;;;;4978335;28;20041;-80
2022/04/07 07:43:50;;;;;;;1.35;0.50;;;12.80;99.90;;;;;;4991670;28;20082;-80
2022/04/07 07:46:16;;;;;;;2.08;0.30;;;12.80;99.90;;;;;;4979017;28;20108;-79
2022/04/07 07:48:42;;;;;;;2.80;0.68;;;13.00;99.90;;;;;;4968945;28;20039;-80
2022/04/07 07:51:08;;;;;;;0.88;0.40;;;13.10;99.90;;;;;;4978981;28;20031;-81
2022/04/07 07:53:34;;;;;;;1.00;0.30;;;13.00;99.90;;;;;;4960951;28;20033;-80
2022/04/07 07:56:01;;;;;;;2.15;0.40;;;13.20;99.90;;;;;;4978133;28;20035;-80
2022/04/07 07:58:26;;;;;;;4.15;0.40;;;13.20;99.90;;;;;;4964716;28;20083;-80
2022/04/07 08:00:52;;;;;;;1.75;0.47;;;13.30;99.90;;;;;;4962936;28;20027;-79
2022/04/07 08:03:18;;;;;;;1.08;0.43;;;13.30;99.90;;;;;;4978889;28;20110;-80
2022/04/07 08:05:43;;;;;;;0.77;0.40;;;13.20;99.90;;;;;;4980593;28;20031;-79
2022/04/07 08:08:11;;;;;;;1.00;0.30;;;13.30;99.90;;;;;;4961893;28;20046;-79
2022/04/07 08:10:36;;;;;;;0.75;0.50;;;13.50;99.90;;;;;;4961878;28;20516;-79
2022/04/07 08:13:02;;;;;;;0.57;0.40;;;13.20;99.90;;;;;;4978061;28;20027;-79
2022/04/07 08:15:27;;;;;;;1.48;0.40;;;13.30;99.90;;;;;;4981554;28;20057;-80
2022/04/07 08:17:53;;;;;;;0.30;0.30;;;13.30;99.90;;;;;;4985203;28;20031;-79
2022/04/07 08:20:19;;;;;;;0.98;0.60;;;13.40;99.90;;;;;;4985477;28;20039;-78
2022/04/07 08:22:45;;;;;;;0.60;0.40;;;13.40;99.90;;;;;;4985257;28;20019;-80
2022/04/07 08:25:10;;;;;;;8.25;0.52;;;13.40;99.90;;;;;;4964850;28;20121;-81
2022/04/07 08:27:36;;;;;;;1.52;0.55;;;13.40;99.90;;;;;;4983126;28;20027;-79
2022/04/07 08:30:02;;;;;;;0.77;0.43;;;13.60;99.90;;;;;;4962190;28;20034;-80
2022/04/07 08:32:31;;;;;;;0.35;0.30;;;13.90;99.90;;;;;;4982612;28;20504;-80
2022/04/07 08:34:58;;;;;;;1.45;0.43;;;13.80;99.90;;;;;;4962566;28;20037;-78
2022/04/07 08:37:24;;;;;;;0.40;0.40;;;13.80;99.90;;;;;;4975217;28;20077;-81
2022/04/07 08:39:51;;;;;;;0.93;0.40;;;13.70;99.90;;;;;;4974687;28;20035;-79
2022/04/07 08:42:20;;;;;;;1.38;0.50;;;13.60;99.90;;;;;;4959718;28;20586;-78
2022/04/07 08:44:47;;;;;;;2.83;0.50;;;13.60;99.90;;;;;;4965688;28;20030;-79
2022/04/07 08:47:14;;;;;;;0.77;0.30;;;13.60;99.90;;;;;;4982990;28;20513;-81
2022/04/07 08:49:42;;;;;;;0.30;0.30;;;13.70;99.90;;;;;;4980401;28;20095;-80
2022/04/07 08:52:08;;;;;;;1.30;0.22;;;13.80;99.90;;;;;;4974907;28;20149;-79
2022/04/07 08:54:34;;;;;;;3.15;0.30;;;13.80;99.90;;;;;;4983043;28;20034;-80
2022/04/07 08:57:01;;;;;;;1.55;0.30;;;13.80;99.90;;;;;;4962872;28;20022;-80
2022/04/07 08:59:26;;;;;;;1.23;0.40;;;13.80;99.90;;;;;;4968182;28;20027;-77
2022/04/07 09:02:01;;;;;;;1.38;0.25;;;13.80;99.90;;;;;;4976256;28;20042;-80
2022/04/07 09:04:30;;;;;;;1.95;0.82;;;13.70;99.90;;;;;;4976391;28;20097;-80
2022/04/07 09:06:56;;;;;;;1.95;0.20;;;13.70;99.90;;;;;;4967884;28;20023;-78
2022/04/07 09:09:22;;;;;;;0.55;0.20;;;13.70;99.90;;;;;;4974370;28;20031;-79
2022/04/07 09:11:55;;;;;;;0.73;0.35;;;13.70;99.90;;;;;;4975187;28;20026;-79
2022/04/07 09:14:21;;;;;;;0.40;0.40;;;13.80;99.90;;;;;;4974789;28;20066;-80
2022/04/07 09:16:52;;;;;;;0.25;0.25;;;13.80;99.90;;;;;;4998501;28;20026;-78
2022/04/07 09:19:23;;;;;;;0.40;0.40;;;13.80;99.90;;;;;;4977114;28;20031;-79
2022/04/07 09:22:09;;;;;;;3.13;0.70;;;13.90;99.90;;;;;;4980407;28;20035;-80
2022/04/07 09:24:39;;;;;;;0.90;0.30;;;14.00;99.90;;;;;;4984874;28;20081;-80
2022/04/07 09:27:08;;;;;;;0.47;0.30;;;13.90;99.90;;;;;;4981918;28;20034;-79
2022/04/07 09:29:39;;;;;;;0.30;0.30;;;13.90;99.90;;;;;;4983982;28;20089;-80
2022/04/07 09:32:19;;;;;;;0.50;0.45;;;13.90;99.90;;;;;;4972510;28;20143;-79
2022/04/07 09:34:56;;;;;;;0.67;0.40;;;13.80;99.90;;;;;;4981908;28;20026;-79
2022/04/07 09:37:23;;;;;;;0.35;0.20;;;13.80;99.90;;;;;;4988846;28;20285;-80
2022/04/07 09:40:00;;;;;;;2.15;0.35;;;13.80;99.90;;;;;;4966112;28;20042;-79
2022/04/07 09:42:26;;;;;;;0.43;0.30;;;13.80;99.90;;;;;;4988842;28;20401;-81
2022/04/07 09:44:56;;;;;;;0.55;0.22;;;13.90;99.90;;;;;;4984000;28;20021;-79
2022/04/07 09:47:22;;;;;;;0.40;0.33;;;13.60;99.90;;;;;;4984331;28;20093;-80
2022/04/07 09:49:49;;;;;;;0.93;0.38;;;13.50;99.90;;;;;;4966261;28;20492;-80
2022/04/07 09:52:20;;;;;;;0.30;0.30;;;13.50;99.90;;;;;;4982203;28;20379;-80
2022/04/07 09:54:49;;;;;;;1.20;0.52;;;13.70;99.90;;;;;;4966938;28;20505;-81
2022/04/07 09:57:15;;;;;;;0.68;0.47;;;13.80;99.90;;;;;;4976181;28;20039;-77
2022/04/07 09:59:42;;;;;;;1.33;0.40;;;13.90;99.90;;;;;;4980441;28;20094;-76
2022/04/07 10:02:08;;;;;;;1.20;0.40;;;14.10;99.90;;;;;;4970532;28;20389;-77
2022/04/07 10:04:34;;;;;;;2.30;0.32;;;14.50;99.90;;;;;;4977764;28;20033;-77
2022/04/07 10:07:02;;;;;;;1.38;0.50;;;14.60;99.90;;;;;;4978095;28;20066;-77
2022/04/07 10:09:29;;;;;;;1.33;0.30;;;14.60;99.90;;;;;;4975628;28;20033;-75
2022/04/07 10:11:57;;;;;;;0.30;0.30;;;14.70;99.90;;;;;;4976104;28;20037;-75
2022/04/07 10:14:24;;;;;;;1.65;0.52;;;14.80;99.90;;;;;;4975275;28;20034;-75
2022/04/07 10:16:50;;;;;;;0.57;0.30;;;14.80;99.90;;;;;;4974995;28;20485;-75
2022/04/07 10:19:27;;;;;;;0.80;0.22;;;14.80;99.90;;;;;;4957871;28;20025;-76
2022/04/07 10:21:55;;;;;;;0.93;0.47;;;14.70;99.90;;;;;;4972847;28;20027;-75
2022/04/07 10:24:35;;;;;;;0.57;0.22;;;14.90;99.90;;;;;;4974061;28;20375;-77
2022/04/07 10:27:05;;;;;;;0.75;0.25;;;14.80;99.90;;;;;;4974749;28;20057;-77
2022/04/07 10:29:31;;;;;;;0.43;0.20;;;15.00;99.90;;;;;;4975423;28;20035;-76
2022/04/07 10:32:11;;;;;;;0.20;0.20;;;15.30;99.90;;;;;;4969426;28;20198;-75
2022/04/07 10:34:51;;;;;;;0.38;0.20;;;15.40;99.90;;;;;;4980210;28;20512;-77
2022/04/07 10:37:28;;;;;;;0.40;0.27;;;15.50;99.90;;;;;;4970765;28;20034;-75
2022/04/07 10:39:54;;;;;;;0.65;0.35;;;15.30;99.90;;;;;;4968659;28;20580;-75
2022/04/07 10:42:58;;;;;;;0.43;0.43;;;15.40;99.90;;;;;;4975135;28;20058;-75
2022/04/07 10:45:31;;;;;;;0.98;0.30;;;15.40;99.90;;;;;;4973355;28;20027;-75
2022/04/07 10:48:24;;;;;;;0.20;0.20;;;15.40;99.90;;;;;;4956268;28;20045;-74
2022/04/07 10:50:51;;;;;;;0.20;0.20;;;15.40;99.90;;;;;;4960163;28;20081;-75
2022/04/07 10:53:22;;;;;;;0.82;0.20;;;15.30;99.90;;;;;;4959883;28;20039;-76
2022/04/07 10:56:00;;;;;;;4.60;1.95;;;15.40;99.90;;;;;;4975433;28;20078;-75
2022/04/07 10:58:45;;;;;;;1.85;0.50;;;15.70;99.90;;;;;;4974260;28;20023;-75
2022/04/07 11:01:30;;;;;;;0.38;0.38;;;15.80;99.90;;;;;;4978119;28;20512;-75
2022/04/07 11:04:18;;;;;;;0.20;0.20;;;15.40;99.90;;;;;;4960415;28;20035;-77
2022/04/07 11:07:02;;;;;;;1.75;0.20;;;15.70;99.90;;;;;;4978018;28;20026;-75
2022/04/07 11:09:40;;;;;;;0.45;0.30;;;15.70;99.90;;;;;;4973939;28;20034;-75
2022/04/07 11:12:11;;;;;;;0.10;0.10;;;15.50;99.90;;;;;;4976894;28;20126;-78
2022/04/07 11:14:37;;;;;;;0.20;0.20;;;15.80;99.90;;;;;;4974676;28;20019;-77
2022/04/07 11:17:06;;;;;;;0.65;0.22;;;15.80;99.90;;;;;;4975341;28;20489;-75
2022/04/07 11:19:50;;;;;;;0.82;0.20;;;16.20;99.90;;;;;;4957952;28;20405;-76
2022/04/07 11:22:19;;;;;;;0.80;0.40;;;15.80;99.90;;;;;;4972552;28;20046;-76
2022/04/07 11:24:44;;;;;;;0.57;0.20;;;16.10;99.90;;;;;;4958421;28;20058;-76
2022/04/07 11:27:36;;;;;;;1.65;0.30;;;15.80;99.90;;;;;;4960560;28;20150;-75
2022/04/07 11:30:05;;;;;;;;;;;15.60;99.90;;;;;;4969009;28;20022;-76
2022/04/07 11:32:31;;;;;;;0.35;0.20;;;15.80;99.90;;;;;;4967204;28;19976;-76
2022/04/07 11:35:00;;;;;;;0.52;0.20;;;15.90;99.90;;;;;;4960250;28;20565;-76
2022/04/07 11:37:26;;;;;;;1.95;0.20;;;15.80;99.90;;;;;;4956047;28;20658;-76
2022/04/07 11:39:53;;;;;;;0.22;0.20;;;15.60;99.90;;;;;;4973161;28;20050;-76
2022/04/07 11:42:20;;;;;;;2.25;0.17;;;15.60;99.90;;;;;;4956945;28;20389;-76
2022/04/07 11:44:46;;;;;;;0.32;0.13;;;15.60;99.90;;;;;;4961199;28;20026;-76
2022/04/07 11:47:28;;;;;;;0.20;0.20;;;15.70;99.90;;;;;;4974270;28;20027;-76
2022/04/07 11:49:54;;;;;;;1.05;0.20;;;15.60;99.90;;;;;;4968042;28;20561;-77
2022/04/07 11:52:27;;;;;;;4.22;1.95;;;15.80;99.90;;;;;;4971215;28;20027;-75
2022/04/07 11:54:54;;;;;;;0.40;0.30;;;15.80;99.90;;;;;;4975761;28;20030;-76
2022/04/07 11:57:22;;;;;;;1.27;0.25;;;15.90;99.90;;;;;;4972738;28;20027;-76
2022/04/07 11:59:48;;;;;;;0.52;0.20;;;15.70;99.90;;;;;;4974698;28;20031;-77
2022/04/07 12:02:20;;;;;;;0.20;0.20;;;16.00;99.90;;;;;;4972572;28;20035;-77
2022/04/07 12:04:45;;;;;;;0.20;0.20;;;16.00;99.90;;;;;;4975863;28;20508;-76
2022/04/07 12:07:11;;;;;;;0.28;0.28;;;15.90;99.90;;;;;;4976531;28;20031;-76
2022/04/07 12:09:36;;;;;;;0.20;0.20;;;16.10;99.90;;;;;;4973854;28;20023;-77
2022/04/07 12:12:02;;;;;;;1.30;0.20;;;16.40;99.90;;;;;;4971084;28;20027;-77
2022/04/07 12:14:28;;;;;;;1.02;0.30;;;16.20;99.90;;;;;;4974146;28;20374;-76
2022/04/07 12:16:54;;;;;;;0.22;0.20;;;15.80;99.90;;;;;;4958369;28;20026;-77
2022/04/07 12:19:20;;;;;;;0.50;0.30;;;16.10;99.90;;;;;;4964560;28;20026;-77
2022/04/07 12:21:57;;;;;;;1.08;0.57;;;15.80;99.90;;;;;;4974151;28;20030;-76
2022/04/07 12:24:23;;;;;;;0.20;0.20;;;15.90;99.90;;;;;;4977136;28;20037;-77
2022/04/07 12:27:00;;;;;;;3.33;0.30;;;15.80;99.90;;;;;;4972428;28;20063;-77
2022/04/07 12:29:31;;;;;;;0.28;0.10;;;15.80;99.90;;;;;;4970607;28;20023;-77
2022/04/07 12:32:09;;;;;;;0.30;0.20;;;15.70;99.90;;;;;;4955781;28;20026;-77
2022/04/07 12:34:51;;;;;;;0.40;0.17;;;15.50;99.90;;;;;;4976105;28;20054;-76
2022/04/07 12:37:36;;;;;;;0.38;0.20;;;15.40;99.90;;;;;;4976350;28;20051;-77
2022/04/07 12:40:02;;;;;;;0.88;0.20;;;15.60;99.90;;;;;;4959994;28;20033;-76
2022/04/07 12:42:28;;;;;;;0.10;0.10;;;15.50;99.90;;;;;;4961794;28;20069;-77
2022/04/07 12:45:05;;;;;;;0.20;0.20;;;15.30;99.90;;;;;;4970569;28;20054;-77
2022/04/07 12:47:30;;;;;;;2.35;0.30;;;15.10;99.90;;;;;;4974508;28;20058;-76
2022/04/07 12:49:58;;;;;;;0.30;0.20;;;15.10;99.90;;;;;;4958783;28;20058;-77
2022/04/07 12:52:38;;;;;;;1.85;0.20;;;15.30;99.90;;;;;;4972385;28;20034;-77